createdAt,value
2023-04-03T00:00:55.338Z,4.11
2023-04-03T00:03:22.688Z,4.17
2023-04-03T00:05:50.368Z,4.06
2023-04-03T00:08:17.681Z,4.09
2023-04-03T00:10:45.277Z,4.02
2023-04-03T00:13:12.466Z,4.04
2023-04-03T00:15:40.965Z,3.98
2023-04-03T00:18:08.440Z,3.93
2023-04-03T00:20:36.234Z,3.94
2023-04-03T00:23:04.827Z,3.94
2023-04-03T00:25:32.098Z,3.96
2023-04-03T00:27:59.268Z,3.97
2023-04-03T00:30:26.643Z,3.91
2023-04-03T00:32:54.549Z,3.88
2023-04-03T00:35:22.788Z,3.94
2023-04-03T00:37:52.416Z,3.87
2023-04-03T00:40:20.550Z,3.89
2023-04-03T00:42:49.290Z,3.92
2023-04-03T00:45:19.350Z,3.96
2023-04-03T00:47:46.974Z,3.94
2023-04-03T00:50:14.075Z,3.95
2023-04-03T00:52:41.261Z,3.92
2023-04-03T00:55:10.005Z,3.93
2023-04-03T00:57:39.776Z,3.88
2023-04-03T01:00:10.401Z,3.96
2023-04-03T01:02:39.136Z,3.92
2023-04-03T01:05:07.236Z,3.95
2023-04-03T01:07:38.163Z,3.87
2023-04-03T01:10:10.127Z,3.86
2023-04-03T01:12:39.706Z,3.89
2023-04-03T01:15:08.843Z,3.87
2023-04-03T01:17:40.713Z,3.87
2023-04-03T01:20:29.928Z,3.81
2023-04-03T01:23:19.278Z,3.84
2023-04-03T01:25:54.914Z,3.79
2023-04-03T01:28:25.436Z,3.77
2023-04-03T01:31:22.684Z,3.73
2023-04-03T01:33:50.259Z,3.69
2023-04-03T01:36:21.746Z,3.72
2023-04-03T01:38:49.616Z,3.69
2023-04-03T01:41:17.026Z,3.68
2023-04-03T01:43:45.285Z,3.67
2023-04-03T01:46:12.556Z,3.66
2023-04-03T01:48:39.832Z,3.63
2023-04-03T01:51:07.573Z,3.62
2023-04-03T01:53:34.862Z,3.59
2023-04-03T01:56:02.420Z,3.58
2023-04-03T01:58:31.830Z,3.48
2023-04-03T02:00:59.996Z,3.53
2023-04-03T02:03:27.385Z,3.43
2023-04-03T02:05:54.567Z,3.48
2023-04-03T02:08:21.765Z,3.47
2023-04-03T02:10:50.070Z,3.43
2023-04-03T02:13:18.350Z,3.36
2023-04-03T02:15:46.432Z,3.33
2023-04-03T02:18:16.639Z,3.26
2023-04-03T02:20:43.800Z,3.23
2023-04-03T02:23:11.863Z,3.30
2023-04-03T02:25:39.511Z,3.23
2023-04-03T02:28:07.116Z,3.27
2023-04-03T02:30:34.248Z,3.18
2023-04-03T02:33:01.802Z,3.19
2023-04-03T02:35:29.102Z,3.15
2023-04-03T02:37:57.004Z,3.17
2023-04-03T02:40:24.685Z,3.11
2023-04-03T02:42:51.804Z,2.97
2023-04-03T02:45:19.279Z,3.04
2023-04-03T02:47:46.825Z,3.04
2023-04-03T02:50:14.069Z,3.02
2023-04-03T02:52:43.076Z,3.01
2023-04-03T02:55:15.538Z,3.02
2023-04-03T02:57:43.183Z,2.99
2023-04-03T03:00:11.056Z,2.93
2023-04-03T03:02:38.094Z,2.98
2023-04-03T03:05:05.875Z,3.01
2023-04-03T03:07:33.612Z,3.06
2023-04-03T03:10:00.786Z,3.04
2023-04-03T03:12:27.805Z,2.93
2023-04-03T03:14:56.610Z,2.91
2023-04-03T03:17:23.660Z,2.90
2023-04-03T03:19:50.883Z,2.84
2023-04-03T03:22:19.506Z,2.84
2023-04-03T03:24:46.591Z,2.83
2023-04-03T03:27:13.644Z,2.76
2023-04-03T03:29:41.084Z,2.76
2023-04-03T03:32:08.394Z,2.68
2023-04-03T03:34:35.647Z,2.71
2023-04-03T03:37:02.940Z,2.66
2023-04-03T03:39:30.072Z,2.65
2023-04-03T03:41:57.664Z,2.60
2023-04-03T03:44:25.185Z,2.53
2023-04-03T03:46:53.555Z,2.57
2023-04-03T03:49:20.835Z,2.53
2023-04-03T03:51:48.332Z,2.51
2023-04-03T03:54:15.661Z,2.38
2023-04-03T03:56:42.835Z,2.40
2023-04-03T03:59:12.825Z,2.37
2023-04-03T04:01:41.002Z,2.27
2023-04-03T04:04:08.936Z,2.19
2023-04-03T04:06:37.243Z,2.18
2023-04-03T04:09:04.883Z,2.11
2023-04-03T04:11:33.490Z,2.14
2023-04-03T04:14:01.069Z,2.18
2023-04-03T04:16:29.167Z,2.17
2023-04-03T04:18:57.468Z,2.19
2023-04-03T04:21:24.946Z,2.16
2023-04-03T04:23:52.432Z,2.15
2023-04-03T04:26:20.088Z,2.15
2023-04-03T04:28:47.171Z,2.09
2023-04-03T04:31:14.910Z,2.00
2023-04-03T04:33:42.318Z,2.09
2023-04-03T04:36:10.443Z,2.08
2023-04-03T04:38:38.288Z,2.11
2023-04-03T04:41:06.142Z,2.15
2023-04-03T04:43:33.436Z,2.06
2023-04-03T04:46:12.656Z,2.11
2023-04-03T04:48:41.516Z,2.08
2023-04-03T04:51:08.879Z,2.09
2023-04-03T04:53:36.514Z,2.08
2023-04-03T04:56:04.382Z,2.07
2023-04-03T04:58:31.834Z,2.02
2023-04-03T05:01:03.458Z,1.98
2023-04-03T05:03:31.057Z,1.96
2023-04-03T05:05:58.703Z,1.91
2023-04-03T05:08:26.214Z,1.98
2023-04-03T05:10:55.629Z,1.97
2023-04-03T05:13:24.421Z,2.00
2023-04-03T05:15:51.734Z,2.01
2023-04-03T05:18:19.591Z,2.02
2023-04-03T05:20:49.807Z,1.92
2023-04-03T05:23:18.637Z,2.16
2023-04-03T05:25:47.903Z,2.19
2023-04-03T05:28:15.675Z,2.14
2023-04-03T05:30:42.955Z,2.23
2023-04-03T05:33:10.782Z,2.00
2023-04-03T05:35:42.564Z,2.09
2023-04-03T05:38:11.134Z,2.05
2023-04-03T05:40:38.973Z,1.97
2023-04-03T05:43:06.925Z,2.07
2023-04-03T05:45:35.307Z,2.04
2023-04-03T05:48:03.028Z,2.02
2023-04-03T05:50:31.209Z,2.00
2023-04-03T05:52:59.830Z,1.93
2023-04-03T05:55:27.603Z,1.92
2023-04-03T05:57:54.775Z,2.01
2023-04-03T06:00:23.622Z,2.15
2023-04-03T06:02:53.186Z,2.25
2023-04-03T06:05:21.509Z,2.42
2023-04-03T06:07:50.475Z,2.52
2023-04-03T06:10:18.541Z,2.75
2023-04-03T06:12:46.267Z,2.88
2023-04-03T06:15:13.334Z,2.85
2023-04-03T06:17:41.312Z,3.03
2023-04-03T06:20:08.973Z,3.08
2023-04-03T06:22:36.963Z,3.27
2023-04-03T06:25:05.828Z,3.18
2023-04-03T06:27:32.981Z,3.29
2023-04-03T06:30:00.228Z,3.38
2023-04-03T06:32:27.777Z,3.46
2023-04-03T06:34:55.020Z,3.51
2023-04-03T06:37:23.705Z,3.58
2023-04-03T06:39:51.357Z,3.70
2023-04-03T06:42:18.946Z,3.61
2023-04-03T06:44:46.364Z,3.69
2023-04-03T06:47:14.950Z,3.74
2023-04-03T06:49:42.538Z,3.91
2023-04-03T06:52:10.870Z,4.06
2023-04-03T06:54:39.233Z,3.98
2023-04-03T06:57:06.583Z,3.93
2023-04-03T06:59:33.812Z,3.85
2023-04-03T07:02:03.105Z,3.97
2023-04-03T07:04:30.885Z,3.93
2023-04-03T07:06:58.388Z,4.01
2023-04-03T07:09:25.773Z,4.11
2023-04-03T07:11:52.871Z,4.07
2023-04-03T07:14:19.972Z,4.22
2023-04-03T07:16:47.337Z,4.27
2023-04-03T07:19:14.390Z,4.55
2023-04-03T07:21:42.915Z,4.78
2023-04-03T07:24:13.063Z,4.91
2023-04-03T07:26:43.165Z,4.96
2023-04-03T07:29:10.855Z,5.22
2023-04-03T07:31:42.595Z,5.39
2023-04-03T07:34:09.659Z,5.49
2023-04-03T07:36:37.159Z,5.64
2023-04-03T07:39:04.652Z,5.38
2023-04-03T07:41:32.085Z,5.69
2023-04-03T07:43:59.465Z,5.69
2023-04-03T07:46:27.160Z,5.91
2023-04-03T07:48:55.254Z,6.11
2023-04-03T07:51:27.986Z,6.30
2023-04-03T07:53:55.161Z,6.52
2023-04-03T07:56:22.403Z,6.40
2023-04-03T07:58:49.720Z,6.34
2023-04-03T08:01:16.886Z,6.60
2023-04-03T08:03:44.402Z,6.60
2023-04-03T08:06:15.713Z,6.60
2023-04-03T08:08:43.397Z,6.73
2023-04-03T08:11:11.638Z,6.79
2023-04-03T08:13:39.190Z,7.09
2023-04-03T08:16:17.575Z,6.84
2023-04-03T08:18:45.846Z,7.19
2023-04-03T08:21:13.418Z,7.15
2023-04-03T08:23:44.401Z,7.21
2023-04-03T08:26:17.273Z,7.20
2023-04-03T08:28:44.365Z,7.46
2023-04-03T08:31:19.431Z,7.49
2023-04-03T08:33:47.509Z,7.26
2023-04-03T08:36:23.276Z,7.56
2023-04-03T08:38:51.866Z,7.79
2023-04-03T08:41:34.084Z,7.90
2023-04-03T08:44:27.163Z,7.95
2023-04-03T08:47:22.351Z,8.30
2023-04-03T08:50:00.844Z,8.03
2023-04-03T08:52:39.265Z,8.42
2023-04-03T08:55:18.880Z,8.57
2023-04-03T08:57:46.938Z,8.21
2023-04-03T09:00:22.400Z,8.44
2023-04-03T09:02:55.143Z,8.58
2023-04-03T09:05:48.523Z,8.60
2023-04-03T09:08:41.890Z,8.86
2023-04-03T09:11:24.005Z,8.97
2023-04-03T09:14:19.277Z,9.24
2023-04-03T09:16:57.087Z,9.27
2023-04-03T09:19:24.460Z,9.49
2023-04-03T09:21:51.783Z,9.39
2023-04-03T09:24:19.220Z,9.30
2023-04-03T09:27:09.038Z,9.24
2023-04-03T09:29:41.262Z,9.16
2023-04-03T09:32:30.109Z,9.01
2023-04-03T09:35:21.886Z,9.36
2023-04-03T09:38:00.786Z,9.30
2023-04-03T09:40:28.691Z,9.03
2023-04-03T09:43:01.459Z,8.64
2023-04-03T09:45:30.466Z,8.53
2023-04-03T09:48:29.169Z,8.40
2023-04-03T09:51:00.588Z,8.15
2023-04-03T09:53:37.742Z,8.42
2023-04-03T09:56:23.243Z,8.88
2023-04-03T09:59:02.333Z,9.24
2023-04-03T10:01:55.908Z,9.75
2023-04-03T10:04:23.745Z,9.92
2023-04-03T10:06:54.023Z,10.48
2023-04-03T10:09:21.615Z,9.91
2023-04-03T10:12:02.753Z,10.07
2023-04-03T10:14:31.012Z,10.09
2023-04-03T10:17:38.964Z,10.03
2023-04-03T10:20:15.649Z,10.10
2023-04-03T10:22:46.519Z,10.18
2023-04-03T10:25:14.718Z,10.08
2023-04-03T10:27:53.602Z,9.75
2023-04-03T10:30:46.966Z,9.54
2023-04-03T10:33:29.064Z,9.47
2023-04-03T10:36:10.387Z,9.23
2023-04-03T10:39:05.899Z,9.14
2023-04-03T10:41:47.572Z,9.30
2023-04-03T10:44:22.001Z,9.05
2023-04-03T10:46:52.603Z,8.88
2023-04-03T10:49:28.980Z,8.75
2023-04-03T10:52:28.730Z,9.00
2023-04-03T10:55:16.230Z,8.81
2023-04-03T10:57:43.888Z,8.99
2023-04-03T11:00:20.413Z,9.29
2023-04-03T11:03:10.728Z,9.21
2023-04-03T11:05:42.945Z,9.04
2023-04-03T11:08:36.536Z,9.09
2023-04-03T11:11:13.824Z,8.93
2023-04-03T11:13:57.866Z,9.05
2023-04-03T11:16:30.607Z,8.64
2023-04-03T11:19:22.860Z,8.52
2023-04-03T11:21:57.268Z,8.62
2023-04-03T11:24:27.514Z,8.77
2023-04-03T11:26:56.517Z,8.62
2023-04-03T11:29:35.015Z,8.68
2023-04-03T11:32:18.649Z,8.86
2023-04-03T11:34:48.203Z,8.95
2023-04-03T11:37:29.825Z,8.73
2023-04-03T11:39:59.974Z,8.55
2023-04-03T11:42:43.618Z,8.75
2023-04-03T11:45:23.099Z,8.70
2023-04-03T11:48:04.752Z,8.79
2023-04-03T11:50:46.010Z,8.82
2023-04-03T11:53:13.408Z,8.98
2023-04-03T11:55:47.698Z,9.03
2023-04-03T11:58:23.613Z,8.96
2023-04-03T12:01:02.505Z,8.95
2023-04-03T12:03:30.738Z,9.07
2023-04-03T12:06:17.837Z,8.99
2023-04-03T12:08:47.504Z,8.85
2023-04-03T12:11:14.752Z,8.75
2023-04-03T12:14:04.615Z,8.74
2023-04-03T12:16:35.680Z,9.03
2023-04-03T12:19:16.936Z,8.95
2023-04-03T12:21:50.087Z,8.70
2023-04-03T12:24:17.025Z,8.68
2023-04-03T12:26:51.943Z,8.50
2023-04-03T12:29:24.654Z,8.49
2023-04-03T12:32:08.301Z,8.61
2023-04-03T12:35:08.971Z,8.59
2023-04-03T12:38:18.388Z,8.69
2023-04-03T12:40:53.841Z,8.58
2023-04-03T12:43:33.145Z,8.66
2023-04-03T12:46:04.472Z,8.77
2023-04-03T12:48:40.570Z,8.67
2023-04-03T12:51:07.926Z,8.69
2023-04-03T12:53:39.530Z,8.96
2023-04-03T12:56:27.391Z,8.99
2023-04-03T12:59:00.467Z,9.05
2023-04-03T13:01:28.030Z,9.01
2023-04-03T13:03:57.406Z,9.06
2023-04-03T13:06:32.125Z,9.04
2023-04-03T13:09:01.425Z,9.04
2023-04-03T13:11:36.014Z,8.93
2023-04-03T13:14:16.704Z,8.92
2023-04-03T13:16:54.781Z,8.89
2023-04-03T13:19:25.844Z,8.93
2023-04-03T13:21:59.312Z,8.99
2023-04-03T13:24:27.194Z,9.03
2023-04-03T13:26:54.836Z,9.16
2023-04-03T13:29:40.904Z,9.23
2023-04-03T13:32:08.808Z,9.01
2023-04-03T13:34:47.096Z,9.04
2023-04-03T13:37:24.667Z,9.10
2023-04-03T13:39:58.952Z,9.10
2023-04-03T13:42:30.664Z,9.10
2023-04-03T13:45:14.048Z,8.86
2023-04-03T13:47:43.880Z,8.68
2023-04-03T13:50:20.476Z,8.73
2023-04-03T13:52:56.572Z,8.75
2023-04-03T13:55:27.771Z,8.64
2023-04-03T13:57:57.632Z,8.41
2023-04-03T14:00:31.794Z,8.41
2023-04-03T14:03:01.968Z,8.41
2023-04-03T14:05:30.769Z,8.49
2023-04-03T14:07:59.914Z,8.41
2023-04-03T14:10:27.997Z,8.55
2023-04-03T14:12:55.524Z,8.43
2023-04-03T14:15:26.350Z,8.39
2023-04-03T14:17:53.828Z,8.32
2023-04-03T14:20:23.773Z,8.15
2023-04-03T14:22:52.263Z,8.12
2023-04-03T14:25:20.479Z,8.06
2023-04-03T14:27:50.051Z,7.97
2023-04-03T14:30:22.967Z,7.84
2023-04-03T14:32:50.345Z,7.78
2023-04-03T14:35:19.720Z,7.66
2023-04-03T14:37:48.471Z,7.52
2023-04-03T14:40:25.468Z,7.59
2023-04-03T14:42:56.260Z,7.64
2023-04-03T14:45:24.681Z,7.64
2023-04-03T14:47:54.389Z,7.52
2023-04-03T14:50:27.995Z,7.41
2023-04-03T14:52:58.696Z,7.37
2023-04-03T14:55:27.177Z,7.46
2023-04-03T14:57:55.143Z,7.28
2023-04-03T15:00:22.944Z,7.17
2023-04-03T15:02:50.503Z,7.34
2023-04-03T15:05:18.001Z,7.33
2023-04-03T15:07:51.567Z,7.35
2023-04-03T15:10:24.762Z,7.13
2023-04-03T15:12:52.877Z,7.18
2023-04-03T15:15:21.938Z,7.12
2023-04-03T15:17:54.951Z,7.16
2023-04-03T15:20:26.010Z,6.95
2023-04-03T15:22:53.355Z,6.89
2023-04-03T15:25:20.855Z,6.87
2023-04-03T15:27:48.221Z,6.95
2023-04-03T15:30:18.481Z,6.92
2023-04-03T15:32:46.163Z,6.88
2023-04-03T15:35:14.158Z,6.93
2023-04-03T15:37:41.233Z,6.89
2023-04-03T15:40:08.978Z,6.89
2023-04-03T15:42:36.283Z,6.89
2023-04-03T15:45:03.540Z,6.79
2023-04-03T15:47:31.208Z,6.77
2023-04-03T15:50:00.917Z,6.74
2023-04-03T15:52:28.892Z,6.69
2023-04-03T15:54:56.022Z,6.68
2023-04-03T15:57:27.074Z,6.63
2023-04-03T15:59:54.317Z,6.60
2023-04-03T16:02:23.365Z,6.53
2023-04-03T16:04:50.741Z,6.43
2023-04-03T16:07:17.745Z,6.39
2023-04-03T16:09:44.809Z,6.41
2023-04-03T16:12:12.477Z,6.28
2023-04-03T16:14:39.539Z,6.28
2023-04-03T16:17:06.654Z,6.20
2023-04-03T16:19:33.974Z,6.16
2023-04-03T16:22:01.074Z,6.09
2023-04-03T16:24:28.215Z,6.12
2023-04-03T16:26:55.695Z,6.05
2023-04-03T16:29:22.739Z,5.99
2023-04-03T16:31:50.050Z,6.00
2023-04-03T16:34:17.421Z,5.92
2023-04-03T16:36:44.500Z,5.89
2023-04-03T16:39:11.611Z,5.85
2023-04-03T16:41:38.930Z,5.79
2023-04-03T16:44:08.636Z,5.90
2023-04-03T16:46:36.191Z,5.74
2023-04-03T16:49:04.178Z,5.77
2023-04-03T16:51:32.688Z,5.75
2023-04-03T16:53:59.774Z,5.74
2023-04-03T16:56:27.770Z,5.69
2023-04-03T16:58:54.942Z,5.71
2023-04-03T17:01:23.135Z,5.71
2023-04-03T17:03:50.550Z,5.78
2023-04-03T17:06:19.882Z,5.64
2023-04-03T17:08:49.114Z,5.63
2023-04-03T17:11:28.159Z,5.58
2023-04-03T17:13:55.217Z,5.65
2023-04-03T17:16:23.651Z,5.60
2023-04-03T17:18:50.823Z,5.65
2023-04-03T17:21:18.166Z,5.73
2023-04-03T17:23:49.051Z,5.68
2023-04-03T17:26:16.229Z,5.71
2023-04-03T17:28:45.430Z,5.76
2023-04-03T17:31:13.759Z,5.81
2023-04-03T17:33:40.988Z,5.93
2023-04-03T17:36:08.458Z,5.96
2023-04-03T17:38:38.709Z,5.94
2023-04-03T17:41:08.557Z,6.01
2023-04-03T17:43:36.369Z,5.95
2023-04-03T17:46:09.015Z,5.94
2023-04-03T17:48:38.382Z,5.87
2023-04-03T17:51:10.389Z,5.89
2023-04-03T17:53:37.967Z,5.86
2023-04-03T17:56:08.822Z,5.89
2023-04-03T17:58:36.190Z,5.85
2023-04-03T18:01:14.086Z,5.91
2023-04-03T18:03:42.889Z,5.81
2023-04-03T18:06:16.122Z,5.89
2023-04-03T18:08:53.082Z,5.77
2023-04-03T18:11:22.520Z,5.72
2023-04-03T18:13:49.941Z,5.76
2023-04-03T18:16:17.286Z,5.67
2023-04-03T18:18:44.409Z,5.62
2023-04-03T18:21:13.818Z,5.53
2023-04-03T18:23:45.421Z,5.51
2023-04-03T18:26:16.601Z,5.44
2023-04-03T18:28:58.341Z,5.45
2023-04-03T18:31:26.582Z,5.47
2023-04-03T18:33:54.944Z,5.44
2023-04-03T18:36:22.105Z,5.34
2023-04-03T18:38:49.481Z,5.32
2023-04-03T18:41:16.654Z,5.33
2023-04-03T18:43:43.819Z,5.35
2023-04-03T18:46:11.345Z,5.29
2023-04-03T18:48:44.237Z,5.30
2023-04-03T18:51:12.245Z,5.24
2023-04-03T18:56:08.159Z,5.11
2023-04-03T18:58:35.772Z,5.12
2023-04-03T19:01:03.343Z,5.07
2023-04-03T19:03:31.788Z,5.00
2023-04-03T19:05:59.482Z,4.97
2023-04-03T19:08:26.497Z,4.96
2023-04-03T19:10:53.478Z,4.94
2023-04-03T19:13:20.912Z,4.94
2023-04-03T19:15:48.603Z,4.88
2023-04-03T19:18:15.860Z,4.88
2023-04-03T19:20:43.254Z,4.78
2023-04-03T19:23:11.446Z,4.73
2023-04-03T19:25:38.914Z,4.66
2023-04-03T19:28:06.478Z,4.67
2023-04-03T19:30:33.636Z,4.65
2023-04-03T19:33:01.005Z,4.60
2023-04-03T19:35:28.549Z,4.47
2023-04-03T19:37:56.002Z,4.50
2023-04-03T19:40:25.849Z,4.50
2023-04-03T19:42:53.248Z,4.43
2023-04-03T19:45:20.392Z,4.30
2023-04-03T19:47:47.554Z,4.32
2023-04-03T19:50:15.044Z,4.23
2023-04-03T19:52:42.434Z,4.19
2023-04-03T19:55:10.013Z,4.09
2023-04-03T19:57:37.734Z,3.98
2023-04-03T20:00:05.713Z,4.03
2023-04-03T20:02:38.527Z,4.03
2023-04-03T20:05:06.483Z,3.92
2023-04-03T20:07:34.093Z,3.87
2023-04-03T20:10:03.882Z,3.79
2023-04-03T20:12:31.359Z,3.75
2023-04-03T20:14:59.996Z,3.76
2023-04-03T20:17:27.287Z,3.74
2023-04-03T20:20:01.272Z,3.79
2023-04-03T20:22:29.017Z,3.84
2023-04-03T20:24:58.784Z,3.79
2023-04-03T20:27:30.387Z,3.70
2023-04-03T20:29:57.928Z,3.69
2023-04-03T20:32:25.359Z,3.62
2023-04-03T20:35:03.069Z,3.58
2023-04-03T20:37:31.703Z,3.57
2023-04-03T20:39:58.828Z,3.47
2023-04-03T20:42:26.244Z,3.37
2023-04-03T20:44:53.760Z,3.30
2023-04-03T20:47:21.234Z,3.21
2023-04-03T20:49:48.982Z,3.19
2023-04-03T20:52:16.805Z,3.16
2023-04-03T20:54:44.492Z,3.09
2023-04-03T20:57:12.187Z,3.11
2023-04-03T20:59:40.408Z,3.05
2023-04-03T21:02:07.586Z,3.00
2023-04-03T21:04:45.234Z,3.01
2023-04-03T21:07:55.603Z,2.96
2023-04-03T21:11:00.177Z,2.97
2023-04-03T21:14:05.556Z,2.91
2023-04-03T21:16:32.870Z,2.81
2023-04-03T21:19:09.924Z,2.72
2023-04-03T21:21:37.359Z,2.68
2023-04-03T21:24:07.929Z,2.70
2023-04-03T21:26:36.278Z,2.64
2023-04-03T21:29:04.255Z,2.66
2023-04-03T21:31:58.605Z,2.71
2023-04-03T21:34:29.986Z,2.67
2023-04-03T21:37:07.937Z,2.65
2023-04-03T21:39:35.090Z,2.53
2023-04-03T21:42:03.607Z,2.46
2023-04-03T21:44:30.884Z,2.46
2023-04-03T21:46:57.974Z,2.35
2023-04-03T21:49:25.972Z,2.32
2023-04-03T21:51:54.347Z,2.28
2023-04-03T21:54:21.377Z,2.31
2023-04-03T21:56:49.434Z,2.33
2023-04-03T21:59:16.632Z,2.25
2023-04-03T22:01:43.825Z,2.18
2023-04-03T22:04:11.517Z,2.20
2023-04-03T22:06:38.846Z,2.19
2023-04-03T22:09:05.892Z,2.15
2023-04-03T22:11:33.264Z,2.16
2023-04-03T22:14:00.981Z,2.13
2023-04-03T22:16:28.373Z,2.19
2023-04-03T22:18:59.136Z,2.20
2023-04-03T22:21:27.122Z,2.20
2023-04-03T22:23:54.679Z,2.10
2023-04-03T22:26:22.148Z,2.14
2023-04-03T22:28:49.177Z,2.18
2023-04-03T22:31:17.174Z,2.24
2023-04-03T22:33:45.636Z,2.13
2023-04-03T22:36:13.798Z,2.09
2023-04-03T22:38:44.842Z,2.09
2023-04-03T22:41:12.425Z,2.01
2023-04-03T22:43:39.707Z,2.05
2023-04-03T22:46:08.706Z,2.02
2023-04-03T22:48:37.400Z,1.97
2023-04-03T22:51:07.453Z,1.96
2023-04-03T22:53:35.676Z,1.92
2023-04-03T22:56:04.955Z,1.90
2023-04-03T22:58:32.268Z,1.95
2023-04-03T23:01:09.340Z,1.91
2023-04-03T23:03:38.060Z,1.83
2023-04-03T23:06:06.254Z,1.81
2023-04-03T23:08:37.978Z,1.76
2023-04-03T23:11:07.292Z,1.78
2023-04-03T23:13:36.529Z,1.78
2023-04-03T23:16:04.481Z,1.75
2023-04-03T23:18:32.802Z,1.68
2023-04-03T23:21:03.376Z,1.60
2023-04-03T23:23:30.986Z,1.53
2023-04-03T23:26:00.448Z,1.44
2023-04-03T23:28:28.518Z,1.34
2023-04-03T23:31:02.458Z,1.22
2023-04-03T23:33:31.098Z,1.17
2023-04-03T23:35:59.135Z,1.10
2023-04-03T23:38:26.677Z,0.98
2023-04-03T23:40:54.074Z,0.87
2023-04-03T23:43:21.878Z,0.86
2023-04-03T23:45:49.045Z,0.80
2023-04-03T23:48:16.540Z,0.76
2023-04-03T23:50:43.713Z,0.73
2023-04-03T23:53:13.455Z,0.69
2023-04-03T23:55:41.860Z,0.64
2023-04-03T23:58:09.162Z,0.50
